createdAt,value
2017-12-13T00:02:17.159Z,100975.20
2017-12-13T00:04:44.868Z,100972.03
2017-12-13T00:07:12.505Z,100971.08
2017-12-13T00:09:40.240Z,100973.02
2017-12-13T00:12:07.914Z,100985.63
2017-12-13T00:14:35.625Z,100984.16
2017-12-13T00:17:03.292Z,100987.86
2017-12-13T00:19:30.955Z,100995.00
2017-12-13T00:21:58.621Z,100999.30
2017-12-13T00:24:26.342Z,100988.84
2017-12-13T00:26:53.958Z,100993.80
2017-12-13T00:29:21.721Z,100996.79
2017-12-13T00:31:49.398Z,100997.18
2017-12-13T00:34:17.068Z,100995.00
2017-12-13T00:36:44.783Z,100999.93
2017-12-13T00:39:12.502Z,101000.88
2017-12-13T00:41:40.184Z,101001.99
2017-12-13T00:44:07.891Z,101002.08
2017-12-13T00:46:35.609Z,101000.70
2017-12-13T00:49:03.277Z,100999.06
2017-12-13T00:51:30.993Z,101012.12
2017-12-13T00:53:58.719Z,101009.08
2017-12-13T00:56:26.432Z,101011.13
2017-12-13T00:58:54.051Z,101009.73
2017-12-13T01:01:21.708Z,101011.80
2017-12-13T01:03:49.393Z,101008.36
2017-12-13T01:06:17.099Z,101010.42
2017-12-13T01:08:44.767Z,101006.95
2017-12-13T01:11:12.507Z,101004.33
2017-12-13T01:13:40.119Z,101007.64
2017-12-13T01:16:07.850Z,101009.73
2017-12-13T01:18:35.516Z,101009.31
2017-12-13T01:21:03.221Z,101006.95
2017-12-13T01:23:30.891Z,101005.58
2017-12-13T01:25:58.607Z,101009.82
2017-12-13T01:28:26.271Z,101015.58
2017-12-13T01:30:53.939Z,101009.55
2017-12-13T01:33:21.545Z,101011.08
2017-12-13T01:35:59.057Z,101022.60
2017-12-13T01:38:26.719Z,101014.09
2017-12-13T01:40:54.448Z,101017.83
2017-12-13T01:43:22.133Z,101017.94
2017-12-13T01:45:49.850Z,101028.48
2017-12-13T01:48:17.451Z,101026.27
2017-12-13T01:50:45.207Z,101025.05
2017-12-13T01:53:12.819Z,101029.44
2017-12-13T01:55:40.574Z,101027.44
2017-12-13T01:58:08.233Z,101024.78
2017-12-13T02:00:35.939Z,101028.48
2017-12-13T02:03:03.626Z,101029.32
2017-12-13T02:05:31.348Z,101031.38
2017-12-13T02:07:59.011Z,101031.38
2017-12-13T02:10:26.666Z,101032.75
2017-12-13T02:12:54.338Z,101022.57
2017-12-13T02:15:22.093Z,101025.31
2017-12-13T02:17:49.769Z,101018.21
2017-12-13T02:20:17.507Z,101015.20
2017-12-13T02:22:45.187Z,101017.85
2017-12-13T02:25:12.911Z,101006.59
2017-12-13T02:27:40.567Z,101018.42
2017-12-13T02:30:08.283Z,101012.09
2017-12-13T02:32:35.972Z,101015.97
2017-12-13T02:35:03.689Z,101015.82
2017-12-13T02:37:31.342Z,101001.09
2017-12-13T02:40:10.675Z,101003.73
2017-12-13T02:42:38.361Z,100999.87
2017-12-13T02:45:06.050Z,100996.44
2017-12-13T02:47:33.720Z,100992.20
2017-12-13T02:50:01.337Z,100993.72
2017-12-13T02:52:29.045Z,100992.31
2017-12-13T02:54:56.785Z,100992.70
2017-12-13T02:57:24.466Z,100994.08
2017-12-13T02:59:52.128Z,100982.44
2017-12-13T03:02:19.838Z,100982.34
2017-12-13T03:04:47.445Z,100983.41
2017-12-13T03:07:15.165Z,100984.91
2017-12-13T03:09:42.771Z,100979.42
2017-12-13T03:12:10.497Z,100982.26
2017-12-13T03:14:38.167Z,100979.23
2017-12-13T03:17:05.890Z,100962.39
2017-12-13T03:19:33.508Z,100969.09
2017-12-13T03:22:01.218Z,100961.23
2017-12-13T03:24:28.819Z,100957.06
2017-12-13T03:26:56.551Z,100955.87
2017-12-13T03:29:24.220Z,100954.36
2017-12-13T03:31:51.929Z,100952.98
2017-12-13T03:34:19.590Z,100951.98
2017-12-13T03:36:47.301Z,100944.25
2017-12-13T03:39:14.976Z,100947.73
2017-12-13T03:41:42.685Z,100942.64
2017-12-13T03:44:10.367Z,100947.22
2017-12-13T03:46:38.077Z,100943.95
2017-12-13T03:49:05.748Z,100936.37
2017-12-13T03:51:33.463Z,100926.28
2017-12-13T03:54:01.071Z,100930.88
2017-12-13T03:56:28.777Z,100928.06
2017-12-13T03:58:56.446Z,100928.36
2017-12-13T04:01:24.156Z,100932.93
2017-12-13T04:03:51.849Z,100926.91
2017-12-13T04:06:19.578Z,100920.61
2017-12-13T04:08:47.251Z,100925.97
2017-12-13T04:11:14.968Z,100924.40
2017-12-13T04:13:42.591Z,100922.68
2017-12-13T04:16:10.266Z,100913.27
2017-12-13T04:18:37.943Z,100913.34
2017-12-13T04:21:05.654Z,100908.20
2017-12-13T04:23:33.326Z,100909.78
2017-12-13T04:26:01.033Z,100906.69
2017-12-13T04:28:28.669Z,100899.69
2017-12-13T04:30:56.381Z,100905.81
2017-12-13T04:33:24.047Z,100903.49
2017-12-13T04:35:51.660Z,100896.98
2017-12-13T04:38:19.382Z,100896.66
2017-12-13T04:40:47.066Z,100889.34
2017-12-13T04:43:14.799Z,100887.67
2017-12-13T04:45:42.480Z,100884.63
2017-12-13T04:48:10.210Z,100881.46
2017-12-13T04:50:37.879Z,100878.42
2017-12-13T04:53:05.537Z,100873.25
2017-12-13T04:55:33.255Z,100880.30
2017-12-13T04:58:00.982Z,100880.45
2017-12-13T05:00:28.585Z,100881.18
2017-12-13T05:02:56.296Z,100880.87
2017-12-13T05:05:24.006Z,100880.56
2017-12-13T05:07:51.774Z,100878.19
2017-12-13T05:10:19.479Z,100869.26
2017-12-13T05:12:47.223Z,100874.47
2017-12-13T05:15:14.901Z,100864.89
2017-12-13T05:17:42.582Z,100856.78
2017-12-13T05:20:10.270Z,100863.44
2017-12-13T05:22:38.007Z,100862.05
2017-12-13T05:25:05.720Z,100864.59
2017-12-13T05:27:33.438Z,100854.23
2017-12-13T05:30:01.151Z,100845.95
2017-12-13T05:32:28.835Z,100843.87
2017-12-13T05:34:56.607Z,100838.59
2017-12-13T05:37:24.355Z,100844.95
2017-12-13T05:39:51.976Z,100840.93
2017-12-13T05:42:19.714Z,100837.08
2017-12-13T05:44:47.345Z,100841.42
2017-12-13T05:47:15.004Z,100843.31
2017-12-13T05:49:42.628Z,100840.16
2017-12-13T05:52:10.294Z,100840.05
2017-12-13T05:54:37.928Z,100829.36
2017-12-13T05:57:05.587Z,100834.16
2017-12-13T05:59:33.226Z,100826.47
2017-12-13T06:02:00.902Z,100827.35
2017-12-13T06:04:28.519Z,100829.02
2017-12-13T06:06:56.194Z,100823.47
2017-12-13T06:09:23.818Z,100823.69
2017-12-13T06:11:51.522Z,100812.84
2017-12-13T06:14:19.155Z,100807.30
2017-12-13T06:16:46.827Z,100800.84
2017-12-13T06:19:14.451Z,100804.42
2017-12-13T06:21:42.134Z,100791.22
2017-12-13T06:24:09.859Z,100796.24
2017-12-13T06:26:37.547Z,100800.98
2017-12-13T06:29:05.291Z,100789.46
2017-12-13T06:31:32.979Z,100783.23
2017-12-13T06:34:00.703Z,100785.75
2017-12-13T06:36:28.387Z,100794.34
2017-12-13T06:38:56.109Z,100793.43
2017-12-13T06:41:23.802Z,100779.52
2017-12-13T06:43:51.541Z,100774.72
2017-12-13T06:46:19.223Z,100777.34
2017-12-13T06:48:46.942Z,100773.27
2017-12-13T06:51:14.621Z,100772.09
2017-12-13T06:53:42.340Z,100771.56
2017-12-13T06:56:10.041Z,100771.83
2017-12-13T06:58:37.777Z,100761.28
2017-12-13T07:01:05.460Z,100758.25
2017-12-13T07:03:33.200Z,100760.30
2017-12-13T07:06:00.874Z,100750.91
2017-12-13T07:08:28.536Z,100757.64
2017-12-13T07:10:56.213Z,100749.54
2017-12-13T07:13:23.948Z,100750.34
2017-12-13T07:15:51.647Z,100745.13
2017-12-13T07:18:19.391Z,100745.66
2017-12-13T07:20:47.078Z,100737.48
2017-12-13T07:23:14.805Z,100741.59
2017-12-13T07:25:42.499Z,100731.55
2017-12-13T07:28:10.255Z,100735.13
2017-12-13T07:30:37.928Z,100733.18
2017-12-13T07:33:05.688Z,100726.95
2017-12-13T07:35:33.399Z,100717.12
2017-12-13T07:38:01.151Z,100716.91
2017-12-13T07:40:28.841Z,100705.03
2017-12-13T07:42:56.569Z,100702.52
2017-12-13T07:45:24.262Z,100705.44
2017-12-13T07:47:52.001Z,100697.02
2017-12-13T07:50:19.706Z,100687.77
2017-12-13T07:52:47.453Z,100680.98
2017-12-13T07:55:15.174Z,100685.95
2017-12-13T07:57:42.946Z,100677.23
2017-12-13T08:00:10.625Z,100678.09
2017-12-13T08:02:38.356Z,100665.02
2017-12-13T08:05:06.026Z,100661.26
2017-12-13T08:07:33.737Z,100660.89
2017-12-13T08:10:01.417Z,100663.96
2017-12-13T08:12:29.081Z,100657.94
2017-12-13T08:14:56.814Z,100662.65
2017-12-13T08:17:24.492Z,100657.16
2017-12-13T08:19:52.208Z,100648.72
2017-12-13T08:22:19.875Z,100650.26
2017-12-13T08:24:47.606Z,100645.75
2017-12-13T08:27:15.324Z,100641.10
2017-12-13T08:29:43.053Z,100645.09
2017-12-13T08:32:10.723Z,100629.89
2017-12-13T08:34:38.437Z,100625.28
2017-12-13T08:37:06.130Z,100623.25
2017-12-13T08:39:33.871Z,100624.30
2017-12-13T08:42:01.563Z,100617.30
2017-12-13T08:44:29.282Z,100614.27
2017-12-13T08:46:56.962Z,100607.13
2017-12-13T08:49:24.676Z,100598.48
2017-12-13T08:51:52.377Z,100595.46
2017-12-13T08:54:20.143Z,100592.87
2017-12-13T08:56:47.852Z,100581.11
2017-12-13T08:59:15.619Z,100584.48
2017-12-13T09:01:43.354Z,100574.91
2017-12-13T09:04:11.056Z,100565.12
2017-12-13T09:06:38.786Z,100558.17
2017-12-13T09:09:06.515Z,100552.73
2017-12-13T09:11:34.213Z,100553.20
2017-12-13T09:14:01.924Z,100555.28
2017-12-13T09:16:29.599Z,100548.20
2017-12-13T09:18:57.273Z,100547.80
2017-12-13T09:21:24.880Z,100544.24
2017-12-13T09:23:52.606Z,100544.80
2017-12-13T09:26:20.308Z,100546.92
2017-12-13T09:28:48.056Z,100536.64
2017-12-13T09:31:15.684Z,100537.77
2017-12-13T09:33:43.373Z,100528.03
2017-12-13T09:36:10.998Z,100521.59
2017-12-13T09:38:38.673Z,100516.23
2017-12-13T09:41:06.386Z,100508.02
2017-12-13T09:43:34.120Z,100511.86
2017-12-13T09:46:01.797Z,100496.33
2017-12-13T09:48:29.519Z,100481.52
2017-12-13T09:50:57.140Z,100477.41
2017-12-13T09:53:24.872Z,100468.75
2017-12-13T09:55:52.602Z,100474.09
2017-12-13T09:58:20.476Z,100463.27
2017-12-13T10:00:48.094Z,100467.93
2017-12-13T10:03:15.704Z,100453.05
2017-12-13T10:05:43.440Z,100441.92
2017-12-13T10:08:11.106Z,100436.97
2017-12-13T10:10:38.830Z,100426.92
2017-12-13T10:13:06.456Z,100425.42
2017-12-13T10:15:34.123Z,100424.05
2017-12-13T10:18:01.744Z,100414.97
2017-12-13T10:20:29.497Z,100401.62
2017-12-13T10:22:57.115Z,100393.91
2017-12-13T10:25:24.867Z,100378.11
2017-12-13T10:27:52.546Z,100379.73
2017-12-13T10:30:20.265Z,100367.11
2017-12-13T10:32:47.930Z,100367.91
2017-12-13T10:35:15.627Z,100368.20
2017-12-13T10:37:44.157Z,100358.70
2017-12-13T10:40:11.877Z,100358.70
2017-12-13T10:42:41.277Z,100346.31
2017-12-13T10:45:09.038Z,100340.38
2017-12-13T10:47:36.705Z,100327.55
2017-12-13T10:50:04.456Z,100329.45
2017-12-13T10:52:32.123Z,100319.80
2017-12-13T10:54:59.852Z,100325.05
2017-12-13T10:57:27.486Z,100326.44
2017-12-13T10:59:55.176Z,100303.20
2017-12-13T11:02:22.877Z,100304.05
2017-12-13T11:04:50.545Z,100298.13
2017-12-13T11:07:18.174Z,100289.45
2017-12-13T11:09:45.933Z,100286.02
2017-12-13T11:12:13.569Z,100279.84
2017-12-13T11:14:41.258Z,100281.52
2017-12-13T11:17:08.989Z,100261.84
2017-12-13T11:19:36.730Z,100260.16
2017-12-13T11:22:04.368Z,100251.19
2017-12-13T11:24:32.052Z,100238.91
2017-12-13T11:26:59.678Z,100239.56
2017-12-13T11:29:27.354Z,100233.50
2017-12-13T11:31:55.004Z,100223.84
2017-12-13T11:34:22.751Z,100214.20
2017-12-13T11:36:50.393Z,100215.97
2017-12-13T11:39:18.136Z,100205.05
2017-12-13T11:41:45.804Z,100182.41
2017-12-13T11:44:13.513Z,100180.94
2017-12-13T11:46:41.272Z,100174.61
2017-12-13T11:49:08.909Z,100161.34
2017-12-13T11:51:36.570Z,100147.99
2017-12-13T11:54:06.157Z,100147.71
2017-12-13T11:56:33.851Z,100141.91
2017-12-13T11:59:02.573Z,100126.62
2017-12-13T12:01:30.290Z,100116.30
2017-12-13T12:03:57.924Z,100109.00
2017-12-13T12:06:25.604Z,100104.19
2017-12-13T12:08:53.223Z,100089.72
2017-12-13T12:11:21.011Z,100084.11
2017-12-13T12:13:48.718Z,100076.62
2017-12-13T12:16:16.400Z,100066.23
2017-12-13T12:18:44.033Z,100059.33
2017-12-13T12:21:11.780Z,100053.13
2017-12-13T12:23:39.422Z,100043.13
2017-12-13T12:26:07.129Z,100039.48
2017-12-13T12:28:34.845Z,100033.40
2017-12-13T12:31:02.572Z,100021.38
2017-12-13T12:33:30.257Z,100014.94
2017-12-13T12:35:58.013Z,99989.42
2017-12-13T12:38:25.689Z,99983.42
2017-12-13T12:40:53.406Z,99977.20
2017-12-13T12:43:21.036Z,99971.14
2017-12-13T12:45:48.775Z,99959.32
2017-12-13T12:48:16.473Z,99947.68
2017-12-13T12:50:44.130Z,99933.25
2017-12-13T12:53:11.797Z,99927.57
2017-12-13T12:55:39.477Z,99921.78
2017-12-13T12:58:07.177Z,99924.86
2017-12-13T13:00:34.890Z,99910.50
2017-12-13T13:03:02.599Z,99905.91
2017-12-13T13:05:30.263Z,99901.33
2017-12-13T13:07:57.879Z,99895.82
2017-12-13T13:10:25.551Z,99899.71
2017-12-13T13:12:53.168Z,99895.48
2017-12-13T13:15:20.857Z,99891.59
2017-12-13T13:17:48.467Z,99883.50
2017-12-13T13:20:16.154Z,99872.37
2017-12-13T13:22:43.842Z,99868.42
2017-12-13T13:25:11.458Z,99862.53
2017-12-13T13:27:39.128Z,99850.80
2017-12-13T13:30:06.776Z,99837.39
2017-12-13T13:32:34.442Z,99834.02
2017-12-13T13:35:02.066Z,99823.28
2017-12-13T13:37:29.731Z,99819.11
2017-12-13T13:39:57.354Z,99813.91
2017-12-13T13:42:25.115Z,99805.27
2017-12-13T13:44:52.725Z,99795.91
2017-12-13T13:47:20.465Z,99784.38
2017-12-13T13:49:48.080Z,99777.35
2017-12-13T13:52:15.817Z,99772.30
2017-12-13T13:54:43.589Z,99767.48
2017-12-13T13:57:11.266Z,99764.22
2017-12-13T13:59:38.930Z,99742.81
2017-12-13T14:02:06.601Z,99741.52
2017-12-13T14:04:34.278Z,99739.19
2017-12-13T14:07:02.001Z,99735.11
2017-12-13T14:09:29.622Z,99730.85
2017-12-13T14:11:57.394Z,99729.31
2017-12-13T14:14:25.062Z,99720.92
2017-12-13T14:16:52.784Z,99712.60
2017-12-13T14:19:20.389Z,99716.55
2017-12-13T14:21:48.075Z,99720.61
2017-12-13T14:24:15.697Z,99701.02
2017-12-13T14:26:43.388Z,99698.70
2017-12-13T14:29:11.128Z,99679.91
2017-12-13T14:31:38.801Z,99678.67
2017-12-13T14:34:06.497Z,99676.05
2017-12-13T14:36:34.262Z,99666.02
2017-12-13T14:39:01.974Z,99664.09
2017-12-13T14:41:29.689Z,99662.44
2017-12-13T14:43:57.381Z,99655.36
2017-12-13T14:46:25.108Z,99649.14
2017-12-13T14:48:52.748Z,99642.13
2017-12-13T14:51:20.525Z,99634.33
2017-12-13T14:53:48.196Z,99627.59
2017-12-13T14:56:15.906Z,99635.42
2017-12-13T14:58:43.537Z,99620.34
2017-12-13T15:01:11.192Z,99616.21
2017-12-13T15:03:38.824Z,99620.71
2017-12-13T15:06:06.593Z,99602.70
2017-12-13T15:08:34.282Z,99608.30
2017-12-13T15:11:01.996Z,99598.95
2017-12-13T15:13:29.736Z,99587.27
2017-12-13T15:15:57.402Z,99578.88
2017-12-13T15:18:25.151Z,99582.76
2017-12-13T15:20:52.848Z,99561.55
2017-12-13T15:23:20.505Z,99554.27
2017-12-13T15:25:48.217Z,99550.14
2017-12-13T15:28:15.987Z,99547.15
2017-12-13T15:30:43.654Z,99532.58
2017-12-13T15:33:11.395Z,99536.43
2017-12-13T15:35:39.085Z,99532.06
2017-12-13T15:38:06.874Z,99526.75
2017-12-13T15:40:34.563Z,99505.34
2017-12-13T15:43:02.297Z,99515.69
2017-12-13T15:45:30.004Z,99503.31
2017-12-13T15:47:57.758Z,99492.73
2017-12-13T15:50:25.668Z,99492.22
2017-12-13T15:52:53.414Z,99484.38
2017-12-13T15:55:21.201Z,99480.53
2017-12-13T15:57:48.977Z,99471.23
2017-12-13T16:00:16.597Z,99465.73
2017-12-13T16:02:44.312Z,99470.72
2017-12-13T16:05:11.975Z,99462.05
2017-12-13T16:07:39.759Z,99432.09
2017-12-13T16:10:07.432Z,99447.08
2017-12-13T16:12:35.176Z,99441.95
2017-12-13T16:15:02.943Z,99454.56
2017-12-13T16:17:30.676Z,99436.18
2017-12-13T16:19:58.317Z,99427.02
2017-12-13T16:22:25.989Z,99424.98
2017-12-13T16:24:53.781Z,99411.11
2017-12-13T16:27:21.518Z,99410.37
2017-12-13T16:29:49.202Z,99406.94
2017-12-13T16:32:16.920Z,99402.58
2017-12-13T16:34:44.584Z,99395.98
2017-12-13T16:37:12.380Z,99383.61
2017-12-13T16:39:40.077Z,99388.29
2017-12-13T16:42:07.759Z,99374.95
2017-12-13T16:44:35.458Z,99386.27
2017-12-13T16:47:03.243Z,99377.30
2017-12-13T16:49:30.979Z,99374.86
2017-12-13T16:51:58.653Z,99366.66
2017-12-13T16:54:26.270Z,99368.17
2017-12-13T16:56:53.934Z,99355.57
2017-12-13T16:59:21.612Z,99359.28
2017-12-13T17:01:49.283Z,99348.19
2017-12-13T17:04:16.960Z,99327.72
2017-12-13T17:06:44.642Z,99329.79
2017-12-13T17:09:12.317Z,99318.25
2017-12-13T17:11:40.014Z,99322.68
2017-12-13T17:14:07.805Z,99318.05
2017-12-13T17:16:35.551Z,99299.41
2017-12-13T17:19:03.378Z,99302.47
2017-12-13T17:21:31.054Z,99302.47
2017-12-13T17:23:58.752Z,99297.27
2017-12-13T17:26:26.430Z,99286.88
2017-12-13T17:28:54.158Z,99275.88
2017-12-13T17:31:21.853Z,99279.45
2017-12-13T17:33:49.623Z,99262.14
2017-12-13T17:36:17.318Z,99268.09
2017-12-13T17:38:45.036Z,99252.48
2017-12-13T17:41:12.718Z,99252.94
2017-12-13T17:43:40.659Z,99245.83
2017-12-13T17:46:08.349Z,99241.17
2017-12-13T17:48:36.085Z,99236.91
2017-12-13T17:51:03.884Z,99219.20
2017-12-13T17:53:31.547Z,99225.41
2017-12-13T17:55:59.320Z,99221.44
2017-12-13T17:58:27.039Z,99201.56
2017-12-13T18:00:54.751Z,99213.66
2017-12-13T18:03:22.498Z,99202.81
2017-12-13T18:05:50.171Z,99202.02
2017-12-13T18:08:17.935Z,99191.31
2017-12-13T18:10:45.620Z,99195.20
2017-12-13T18:13:13.507Z,99194.23
2017-12-13T18:15:41.192Z,99189.98
2017-12-13T18:18:08.946Z,99180.02
2017-12-13T18:20:36.622Z,99178.00
2017-12-13T18:23:04.351Z,99183.95
2017-12-13T18:25:31.978Z,99164.77
2017-12-13T18:27:59.655Z,99159.47
2017-12-13T18:30:27.588Z,99150.17
2017-12-13T18:32:55.382Z,99142.63
2017-12-13T18:35:23.091Z,99137.36
2017-12-13T18:37:50.874Z,99126.92
2017-12-13T18:40:18.559Z,99125.84
2017-12-13T18:42:46.252Z,99122.86
2017-12-13T18:45:13.884Z,99115.44
2017-12-13T18:47:41.551Z,99116.95
2017-12-13T18:50:09.280Z,99111.88
2017-12-13T18:52:36.993Z,99114.67
2017-12-13T18:55:04.731Z,99102.22
2017-12-13T18:57:32.397Z,99099.80
2017-12-13T19:00:00.116Z,99098.34
2017-12-13T19:02:27.797Z,99095.33
2017-12-13T19:04:55.517Z,99094.95
2017-12-13T19:07:23.235Z,99089.05
2017-12-13T19:09:50.946Z,99093.26
2017-12-13T19:12:18.570Z,99081.88
2017-12-13T19:14:46.276Z,99065.81
2017-12-13T19:17:13.950Z,99077.15
2017-12-13T19:19:41.690Z,99079.84
2017-12-13T19:22:09.411Z,99081.58
2017-12-13T19:24:37.132Z,99069.32
2017-12-13T19:27:04.803Z,99068.77
2017-12-13T19:29:32.521Z,99059.95
2017-12-13T19:32:00.193Z,99064.06
2017-12-13T19:34:27.990Z,99066.52
2017-12-13T19:36:55.675Z,99056.23
2017-12-13T19:39:23.846Z,99058.57
2017-12-13T19:41:51.557Z,99047.00
2017-12-13T19:44:19.270Z,99052.48
2017-12-13T19:46:46.938Z,99054.27
2017-12-13T19:49:14.648Z,99045.36
2017-12-13T19:51:42.331Z,99042.38
2017-12-13T19:54:10.065Z,99032.50
2017-12-13T19:56:37.733Z,99034.14
2017-12-13T19:59:05.464Z,99033.32
2017-12-13T20:01:33.194Z,99026.45
2017-12-13T20:04:00.918Z,99015.16
2017-12-13T20:06:28.661Z,99019.95
2017-12-13T20:08:56.393Z,99006.31
2017-12-13T20:11:24.117Z,99003.92
2017-12-13T20:13:51.801Z,99006.77
2017-12-13T20:16:19.502Z,98993.16
2017-12-13T20:18:47.243Z,98993.66
2017-12-13T20:21:14.939Z,98984.14
2017-12-13T20:23:42.677Z,98986.83
2017-12-13T20:26:10.421Z,98982.66
2017-12-13T20:28:38.306Z,98967.35
2017-12-13T20:31:05.993Z,98944.19
2017-12-13T20:33:33.724Z,98946.17
2017-12-13T20:36:01.420Z,98941.41
2017-12-13T20:38:29.165Z,98925.28
2017-12-13T20:40:56.893Z,98919.73
2017-12-13T20:43:24.636Z,98913.63
2017-12-13T20:45:52.354Z,98897.48
2017-12-13T20:48:20.016Z,98896.87
2017-12-13T20:50:47.753Z,98890.34
2017-12-13T20:53:15.491Z,98880.34
2017-12-13T20:55:43.199Z,98881.66
2017-12-13T20:58:10.940Z,98877.62
2017-12-13T21:00:38.735Z,98865.59
2017-12-13T21:03:06.474Z,98859.63
2017-12-13T21:05:34.170Z,98842.81
2017-12-13T21:08:01.885Z,98832.75
2017-12-13T21:10:29.658Z,98836.95
2017-12-13T21:12:57.336Z,98836.71
2017-12-13T21:15:25.105Z,98829.39
2017-12-13T21:17:52.792Z,98821.08
2017-12-13T21:20:20.599Z,98830.38
2017-12-13T21:22:48.314Z,98838.06
2017-12-13T21:25:16.147Z,98832.65
2017-12-13T21:27:43.770Z,98822.63
2017-12-13T21:30:11.567Z,98809.48
2017-12-13T21:32:39.184Z,98784.27
2017-12-13T21:35:06.922Z,98776.09
2017-12-13T21:37:34.582Z,98774.24
2017-12-13T21:40:02.359Z,98772.16
2017-12-13T21:42:30.082Z,98756.86
2017-12-13T21:44:57.830Z,98748.39
2017-12-13T21:47:25.575Z,98743.52
2017-12-13T21:49:53.360Z,98742.96
2017-12-13T21:52:20.992Z,98732.78
2017-12-13T21:54:48.812Z,98737.88
2017-12-13T21:57:16.490Z,98731.56
2017-12-13T21:59:44.226Z,98730.19
2017-12-13T22:02:11.896Z,98724.28
2017-12-13T22:04:39.593Z,98720.56
2017-12-13T22:07:07.268Z,98717.81
2017-12-13T22:09:34.992Z,98710.86
2017-12-13T22:12:02.656Z,98708.67
2017-12-13T22:14:30.306Z,98710.94
2017-12-13T22:16:58.019Z,98691.35
2017-12-13T22:19:25.675Z,98681.14
2017-12-13T22:21:53.446Z,98676.87
2017-12-13T22:24:21.125Z,98672.19
2017-12-13T22:26:48.826Z,98658.52
2017-12-13T22:29:16.500Z,98654.24
2017-12-13T22:31:44.242Z,98654.73
2017-12-13T22:34:11.906Z,98648.59
2017-12-13T22:36:39.627Z,98633.85
2017-12-13T22:39:07.355Z,98632.33
2017-12-13T22:41:35.066Z,98626.27
2017-12-13T22:44:02.704Z,98617.69
2017-12-13T22:46:30.413Z,98598.63
2017-12-13T22:48:58.037Z,98591.27
2017-12-13T22:51:25.754Z,98586.00
2017-12-13T22:53:53.495Z,98578.56
2017-12-13T22:56:21.274Z,98568.39
2017-12-13T22:58:48.900Z,98555.61
2017-12-13T23:01:16.645Z,98551.89
2017-12-13T23:03:44.383Z,98546.80
2017-12-13T23:06:12.102Z,98532.64
2017-12-13T23:08:39.768Z,98508.21
2017-12-13T23:11:07.531Z,98504.34
2017-12-13T23:13:35.148Z,98492.13
2017-12-13T23:16:02.801Z,98478.16
2017-12-13T23:18:30.434Z,98472.09
2017-12-13T23:20:58.124Z,98459.32
2017-12-13T23:23:25.804Z,98443.95
2017-12-13T23:25:53.548Z,98443.05
2017-12-13T23:28:21.234Z,98441.67
2017-12-13T23:30:48.925Z,98422.02
2017-12-13T23:33:16.543Z,98411.44
2017-12-13T23:35:44.338Z,98408.69
2017-12-13T23:38:11.947Z,98408.06
2017-12-13T23:40:39.668Z,98383.81
2017-12-13T23:43:07.351Z,98388.34
2017-12-13T23:45:35.026Z,98389.94
2017-12-13T23:48:02.716Z,98375.16
2017-12-13T23:50:30.435Z,98373.94
2017-12-13T23:52:58.141Z,98359.38
2017-12-13T23:55:25.932Z,98361.90
2017-12-13T23:57:54.509Z,98356.35
